sensor_id;sensor_type;location;lat;lon;timestamp;pressure;altitude;pressure_sealevel;temperature;humidity
41886;BME280;27567;43.084;25.616;2022-08-18T00:00:10;97760.53;;;22.46;100.00
41886;BME280;27567;43.084;25.616;2022-08-18T00:03:00;97767.94;;;22.41;100.00
41886;BME280;27567;43.084;25.616;2022-08-18T00:05:47;97768.72;;;22.22;100.00
41886;BME280;27567;43.084;25.616;2022-08-18T00:08:31;97763.94;;;22.33;100.00
41886;BME280;27567;43.084;25.616;2022-08-18T00:11:22;97770.34;;;22.47;100.00
41886;BME280;27567;43.084;25.616;2022-08-18T00:14:07;97763.84;;;22.81;100.00
41886;BME280;27567;43.084;25.616;2022-08-18T00:16:52;97779.06;;;22.69;100.00
41886;BME280;27567;43.084;25.616;2022-08-18T00:19:38;97773.31;;;22.70;100.00
41886;BME280;27567;43.084;25.616;2022-08-18T00:22:22;97785.63;;;22.87;100.00
41886;BME280;27567;43.084;25.616;2022-08-18T00:25:08;97780.38;;;23.09;100.00
41886;BME280;27567;43.084;25.616;2022-08-18T00:27:55;97781.78;;;23.07;100.00
41886;BME280;27567;43.084;25.616;2022-08-18T00:30:39;97776.09;;;23.03;100.00
41886;BME280;27567;43.084;25.616;2022-08-18T00:33:23;97776.84;;;23.09;100.00
41886;BME280;27567;43.084;25.616;2022-08-18T00:36:07;97770.03;;;23.06;100.00
41886;BME280;27567;43.084;25.616;2022-08-18T00:38:52;97783.13;;;22.90;100.00
41886;BME280;27567;43.084;25.616;2022-08-18T00:41:36;97775.59;;;22.63;100.00
41886;BME280;27567;43.084;25.616;2022-08-18T00:44:20;97773.38;;;22.65;100.00
41886;BME280;27567;43.084;25.616;2022-08-18T00:47:04;97777.81;;;22.61;100.00
41886;BME280;27567;43.084;25.616;2022-08-18T00:49:51;97782.25;;;22.76;100.00
41886;BME280;27567;43.084;25.616;2022-08-18T00:52:36;97785.25;;;22.55;100.00
41886;BME280;27567;43.084;25.616;2022-08-18T00:55:21;97775.00;;;22.66;100.00
41886;BME280;27567;43.084;25.616;2022-08-18T00:58:13;97787.19;;;22.74;100.00
41886;BME280;27567;43.084;25.616;2022-08-18T01:01:02;97776.63;;;22.86;100.00
41886;BME280;27567;43.084;25.616;2022-08-18T01:03:49;97779.00;;;22.74;100.00
41886;BME280;27567;43.084;25.616;2022-08-18T01:06:57;97784.81;;;22.67;100.00
41886;BME280;27567;43.084;25.616;2022-08-18T01:09:43;97782.41;;;22.41;100.00
41886;BME280;27567;43.084;25.616;2022-08-18T01:12:27;97783.47;;;22.21;100.00
41886;BME280;27567;43.084;25.616;2022-08-18T01:15:12;97793.53;;;22.01;100.00
41886;BME280;27567;43.084;25.616;2022-08-18T01:17:59;97797.38;;;22.25;100.00
41886;BME280;27567;43.084;25.616;2022-08-18T01:21:21;97785.25;;;22.31;100.00
41886;BME280;27567;43.084;25.616;2022-08-18T01:24:29;97787.81;;;22.22;100.00
41886;BME280;27567;43.084;25.616;2022-08-18T01:27:35;97790.03;;;21.96;100.00
41886;BME280;27567;43.084;25.616;2022-08-18T01:30:20;97789.56;;;21.88;100.00
41886;BME280;27567;43.084;25.616;2022-08-18T01:33:08;97792.13;;;22.04;100.00
41886;BME280;27567;43.084;25.616;2022-08-18T01:35:54;97788.63;;;21.98;100.00
41886;BME280;27567;43.084;25.616;2022-08-18T01:38:40;97790.84;;;21.72;100.00
41886;BME280;27567;43.084;25.616;2022-08-18T01:41:25;97782.59;;;21.77;100.00
41886;BME280;27567;43.084;25.616;2022-08-18T01:44:09;97780.06;;;22.10;100.00
41886;BME280;27567;43.084;25.616;2022-08-18T01:46:54;97783.31;;;22.12;100.00
41886;BME280;27567;43.084;25.616;2022-08-18T01:49:39;97789.91;;;22.06;100.00
41886;BME280;27567;43.084;25.616;2022-08-18T01:52:27;97792.66;;;21.82;100.00
41886;BME280;27567;43.084;25.616;2022-08-18T01:55:12;97796.13;;;21.87;100.00
41886;BME280;27567;43.084;25.616;2022-08-18T01:57:56;97793.34;;;21.92;100.00
41886;BME280;27567;43.084;25.616;2022-08-18T02:00:40;97790.00;;;22.01;100.00
41886;BME280;27567;43.084;25.616;2022-08-18T02:03:28;97785.88;;;22.03;100.00
41886;BME280;27567;43.084;25.616;2022-08-18T02:06:15;97793.69;;;21.86;100.00
41886;BME280;27567;43.084;25.616;2022-08-18T02:09:01;97795.16;;;21.78;100.00
41886;BME280;27567;43.084;25.616;2022-08-18T02:11:45;97792.81;;;21.66;100.00
41886;BME280;27567;43.084;25.616;2022-08-18T02:14:29;97798.03;;;21.57;100.00
41886;BME280;27567;43.084;25.616;2022-08-18T02:17:13;97792.22;;;21.35;100.00
41886;BME280;27567;43.084;25.616;2022-08-18T02:19:57;97781.94;;;21.26;100.00
41886;BME280;27567;43.084;25.616;2022-08-18T02:22:42;97787.13;;;21.23;100.00
41886;BME280;27567;43.084;25.616;2022-08-18T02:25:27;97789.88;;;21.23;100.00
41886;BME280;27567;43.084;25.616;2022-08-18T02:28:11;97787.94;;;21.28;100.00
41886;BME280;27567;43.084;25.616;2022-08-18T02:30:55;97794.22;;;21.24;100.00
41886;BME280;27567;43.084;25.616;2022-08-18T02:33:40;97804.56;;;21.27;100.00
41886;BME280;27567;43.084;25.616;2022-08-18T02:36:24;97795.47;;;21.37;100.00
41886;BME280;27567;43.084;25.616;2022-08-18T02:39:08;97795.44;;;21.42;100.00
41886;BME280;27567;43.084;25.616;2022-08-18T02:41:52;97794.84;;;21.50;100.00
41886;BME280;27567;43.084;25.616;2022-08-18T02:44:36;97802.47;;;21.48;100.00
41886;BME280;27567;43.084;25.616;2022-08-18T02:47:20;97801.56;;;21.28;100.00
41886;BME280;27567;43.084;25.616;2022-08-18T02:50:06;97809.69;;;21.33;100.00
41886;BME280;27567;43.084;25.616;2022-08-18T02:52:50;97810.91;;;21.17;100.00
41886;BME280;27567;43.084;25.616;2022-08-18T02:55:34;97805.00;;;21.05;100.00
41886;BME280;27567;43.084;25.616;2022-08-18T02:58:18;97806.38;;;21.02;100.00
41886;BME280;27567;43.084;25.616;2022-08-18T03:01:03;97803.91;;;21.06;100.00
41886;BME280;27567;43.084;25.616;2022-08-18T03:03:48;97801.97;;;21.11;100.00
41886;BME280;27567;43.084;25.616;2022-08-18T03:06:34;97802.97;;;21.21;100.00
41886;BME280;27567;43.084;25.616;2022-08-18T03:09:19;97806.69;;;21.35;100.00
41886;BME280;27567;43.084;25.616;2022-08-18T03:12:04;97806.34;;;21.42;100.00
41886;BME280;27567;43.084;25.616;2022-08-18T03:14:50;97812.94;;;21.36;100.00
41886;BME280;27567;43.084;25.616;2022-08-18T03:17:34;97813.03;;;21.25;100.00
41886;BME280;27567;43.084;25.616;2022-08-18T03:20:19;97821.41;;;21.34;100.00
41886;BME280;27567;43.084;25.616;2022-08-18T03:23:04;97827.44;;;21.31;100.00
41886;BME280;27567;43.084;25.616;2022-08-18T03:25:49;97820.88;;;21.32;100.00
41886;BME280;27567;43.084;25.616;2022-08-18T03:28:33;97831.00;;;21.26;100.00
41886;BME280;27567;43.084;25.616;2022-08-18T03:31:20;97834.03;;;21.20;100.00
41886;BME280;27567;43.084;25.616;2022-08-18T03:34:06;97834.84;;;21.25;100.00
41886;BME280;27567;43.084;25.616;2022-08-18T03:36:51;97833.00;;;21.15;100.00
41886;BME280;27567;43.084;25.616;2022-08-18T03:39:35;97837.38;;;21.11;100.00
41886;BME280;27567;43.084;25.616;2022-08-18T03:42:19;97839.03;;;21.07;100.00
41886;BME280;27567;43.084;25.616;2022-08-18T03:45:04;97830.31;;;21.10;100.00
41886;BME280;27567;43.084;25.616;2022-08-18T03:47:49;97841.13;;;21.21;100.00
41886;BME280;27567;43.084;25.616;2022-08-18T03:50:35;97841.19;;;21.15;100.00
41886;BME280;27567;43.084;25.616;2022-08-18T03:53:20;97846.00;;;21.58;100.00
41886;BME280;27567;43.084;25.616;2022-08-18T03:56:10;97841.19;;;21.50;100.00
41886;BME280;27567;43.084;25.616;2022-08-18T03:59:01;97845.47;;;21.91;100.00
41886;BME280;27567;43.084;25.616;2022-08-18T04:01:48;97841.97;;;22.15;100.00
41886;BME280;27567;43.084;25.616;2022-08-18T04:04:33;97844.19;;;22.13;100.00
41886;BME280;27567;43.084;25.616;2022-08-18T04:07:17;97845.16;;;22.22;100.00
41886;BME280;27567;43.084;25.616;2022-08-18T04:10:02;97842.16;;;22.24;100.00
41886;BME280;27567;43.084;25.616;2022-08-18T04:12:46;97844.00;;;22.28;100.00
41886;BME280;27567;43.084;25.616;2022-08-18T04:15:31;97846.63;;;22.39;100.00
41886;BME280;27567;43.084;25.616;2022-08-18T04:18:15;97849.03;;;22.40;100.00
41886;BME280;27567;43.084;25.616;2022-08-18T04:21:02;97854.88;;;22.33;100.00
41886;BME280;27567;43.084;25.616;2022-08-18T04:23:46;97855.16;;;22.56;100.00
41886;BME280;27567;43.084;25.616;2022-08-18T04:26:31;97858.06;;;22.65;100.00
41886;BME280;27567;43.084;25.616;2022-08-18T04:29:18;97854.75;;;22.68;100.00
41886;BME280;27567;43.084;25.616;2022-08-18T04:32:04;97850.66;;;22.65;100.00
41886;BME280;27567;43.084;25.616;2022-08-18T04:34:48;97859.38;;;22.67;100.00
41886;BME280;27567;43.084;25.616;2022-08-18T04:37:32;97853.06;;;22.72;100.00
41886;BME280;27567;43.084;25.616;2022-08-18T04:40:16;97846.06;;;22.85;100.00
41886;BME280;27567;43.084;25.616;2022-08-18T04:43:00;97854.91;;;22.77;100.00
41886;BME280;27567;43.084;25.616;2022-08-18T04:45:44;97851.75;;;22.89;100.00
41886;BME280;27567;43.084;25.616;2022-08-18T04:48:30;97863.63;;;22.79;100.00
41886;BME280;27567;43.084;25.616;2022-08-18T04:51:18;97867.84;;;22.90;100.00
41886;BME280;27567;43.084;25.616;2022-08-18T04:54:03;97864.16;;;23.19;100.00
41886;BME280;27567;43.084;25.616;2022-08-18T04:56:47;97862.75;;;23.41;100.00
41886;BME280;27567;43.084;25.616;2022-08-18T04:59:31;97861.06;;;23.45;100.00
41886;BME280;27567;43.084;25.616;2022-08-18T05:02:16;97857.91;;;23.71;100.00
41886;BME280;27567;43.084;25.616;2022-08-18T05:05:01;97868.25;;;23.74;100.00
41886;BME280;27567;43.084;25.616;2022-08-18T05:07:46;97853.63;;;23.98;100.00
41886;BME280;27567;43.084;25.616;2022-08-18T05:10:30;97862.28;;;24.19;100.00
41886;BME280;27567;43.084;25.616;2022-08-18T05:13:14;97857.63;;;24.48;100.00
41886;BME280;27567;43.084;25.616;2022-08-18T05:16:00;97862.50;;;24.51;100.00
41886;BME280;27567;43.084;25.616;2022-08-18T05:18:47;97864.91;;;24.66;100.00
41886;BME280;27567;43.084;25.616;2022-08-18T05:21:32;97865.84;;;24.75;100.00
41886;BME280;27567;43.084;25.616;2022-08-18T05:24:17;97866.28;;;25.05;100.00
41886;BME280;27567;43.084;25.616;2022-08-18T05:27:02;97869.28;;;25.18;100.00
41886;BME280;27567;43.084;25.616;2022-08-18T05:29:46;97878.59;;;25.31;100.00
41886;BME280;27567;43.084;25.616;2022-08-18T05:32:39;97872.94;;;25.27;100.00
41886;BME280;27567;43.084;25.616;2022-08-18T05:35:35;97871.53;;;25.16;100.00
41886;BME280;27567;43.084;25.616;2022-08-18T05:41:23;97885.72;;;25.32;100.00
41886;BME280;27567;43.084;25.616;2022-08-18T05:44:12;97892.66;;;25.52;100.00
41886;BME280;27567;43.084;25.616;2022-08-18T05:47:02;97887.50;;;25.73;100.00
41886;BME280;27567;43.084;25.616;2022-08-18T05:49:48;97887.59;;;25.91;100.00
41886;BME280;27567;43.084;25.616;2022-08-18T05:56:01;97885.03;;;26.17;100.00
41886;BME280;27567;43.084;25.616;2022-08-18T05:59:07;97887.75;;;26.49;100.00
41886;BME280;27567;43.084;25.616;2022-08-18T06:02:32;97888.59;;;26.58;100.00
41886;BME280;27567;43.084;25.616;2022-08-18T06:05:30;97879.31;;;27.03;100.00
41886;BME280;27567;43.084;25.616;2022-08-18T06:08:21;97878.03;;;26.92;100.00
41886;BME280;27567;43.084;25.616;2022-08-18T06:11:08;97884.69;;;27.26;100.00
41886;BME280;27567;43.084;25.616;2022-08-18T06:13:52;97881.94;;;27.35;100.00
41886;BME280;27567;43.084;25.616;2022-08-18T06:20:06;97881.00;;;27.48;100.00
41886;BME280;27567;43.084;25.616;2022-08-18T06:22:59;97887.63;;;27.65;100.00
41886;BME280;27567;43.084;25.616;2022-08-18T06:25:56;97887.59;;;27.91;100.00
41886;BME280;27567;43.084;25.616;2022-08-18T06:41:23;97906.41;;;27.54;100.00
41886;BME280;27567;43.084;25.616;2022-08-18T06:55:45;97906.03;;;27.90;100.00
41886;BME280;27567;43.084;25.616;2022-08-18T06:58:30;97896.47;;;27.97;100.00
41886;BME280;27567;43.084;25.616;2022-08-18T07:01:16;97905.75;;;27.66;100.00
41886;BME280;27567;43.084;25.616;2022-08-18T07:04:00;97895.72;;;27.70;100.00
41886;BME280;27567;43.084;25.616;2022-08-18T07:06:44;97898.41;;;27.96;100.00
41886;BME280;27567;43.084;25.616;2022-08-18T07:09:32;97892.91;;;28.14;100.00
41886;BME280;27567;43.084;25.616;2022-08-18T07:12:25;97898.44;;;27.87;100.00
41886;BME280;27567;43.084;25.616;2022-08-18T07:15:11;97885.28;;;28.11;100.00
41886;BME280;27567;43.084;25.616;2022-08-18T07:18:12;97892.09;;;27.96;100.00
41886;BME280;27567;43.084;25.616;2022-08-18T07:21:00;97884.00;;;27.90;100.00
41886;BME280;27567;43.084;25.616;2022-08-18T07:23:57;97882.81;;;28.18;100.00
41886;BME280;27567;43.084;25.616;2022-08-18T07:27:00;97880.19;;;28.30;100.00
41886;BME280;27567;43.084;25.616;2022-08-18T07:33:12;97874.03;;;28.63;100.00
41886;BME280;27567;43.084;25.616;2022-08-18T07:36:02;97891.72;;;28.62;100.00
41886;BME280;27567;43.084;25.616;2022-08-18T07:38:59;97893.56;;;28.49;100.00
41886;BME280;27567;43.084;25.616;2022-08-18T07:45:27;97892.50;;;29.23;100.00
41886;BME280;27567;43.084;25.616;2022-08-18T07:48:24;97887.22;;;28.88;99.36
41886;BME280;27567;43.084;25.616;2022-08-18T07:51:18;97896.38;;;29.01;99.17
41886;BME280;27567;43.084;25.616;2022-08-18T07:54:17;97894.78;;;29.00;100.00
41886;BME280;27567;43.084;25.616;2022-08-18T07:57:22;97884.75;;;28.95;100.00
41886;BME280;27567;43.084;25.616;2022-08-18T08:06:41;97894.41;;;28.80;100.00
41886;BME280;27567;43.084;25.616;2022-08-18T08:10:20;97890.66;;;28.85;100.00
41886;BME280;27567;43.084;25.616;2022-08-18T08:12:49;97898.66;;;28.99;100.00
41886;BME280;27567;43.084;25.616;2022-08-18T08:22:19;97883.28;;;29.40;100.00
41886;BME280;27567;43.084;25.616;2022-08-18T08:31:31;97886.78;;;30.04;95.60
41886;BME280;27567;43.084;25.616;2022-08-18T08:34:34;97884.72;;;29.80;94.50
41886;BME280;27567;43.084;25.616;2022-08-18T08:37:57;97891.28;;;29.88;96.47
41886;BME280;27567;43.084;25.616;2022-08-18T08:40:53;97887.56;;;29.71;92.18
41886;BME280;27567;43.084;25.616;2022-08-18T08:43:45;97873.56;;;29.76;90.52
41886;BME280;27567;43.084;25.616;2022-08-18T08:46:57;97878.97;;;29.73;88.75
41886;BME280;27567;43.084;25.616;2022-08-18T08:49:51;97882.31;;;29.91;88.81
41886;BME280;27567;43.084;25.616;2022-08-18T08:55:59;97884.00;;;29.71;88.02
41886;BME280;27567;43.084;25.616;2022-08-18T08:58:55;97882.78;;;29.80;88.67
41886;BME280;27567;43.084;25.616;2022-08-18T09:07:56;97882.44;;;30.28;85.21
41886;BME280;27567;43.084;25.616;2022-08-18T09:14:08;97865.53;;;30.42;79.98
41886;BME280;27567;43.084;25.616;2022-08-18T09:20:18;97886.81;;;30.41;79.60
41886;BME280;27567;43.084;25.616;2022-08-18T09:23:11;97875.13;;;29.98;81.66
41886;BME280;27567;43.084;25.616;2022-08-18T09:25:59;97875.72;;;30.04;81.71
41886;BME280;27567;43.084;25.616;2022-08-18T09:29:25;97885.78;;;30.21;85.57
41886;BME280;27567;43.084;25.616;2022-08-18T09:38:13;97874.75;;;30.58;75.65
41886;BME280;27567;43.084;25.616;2022-08-18T09:41:34;97868.19;;;30.76;80.69
41886;BME280;27567;43.084;25.616;2022-08-18T10:11:15;97826.38;;;31.91;63.22
41886;BME280;27567;43.084;25.616;2022-08-18T10:29:44;97834.09;;;37.14;38.09
41886;BME280;27567;43.084;25.616;2022-08-18T10:32:40;97821.84;;;36.63;39.07
41886;BME280;27567;43.084;25.616;2022-08-18T10:35:57;97826.41;;;36.37;40.20
41886;BME280;27567;43.084;25.616;2022-08-18T10:38:44;97834.00;;;35.54;42.39
41886;BME280;27567;43.084;25.616;2022-08-18T10:41:33;97828.63;;;36.65;40.19
41886;BME280;27567;43.084;25.616;2022-08-18T10:44:21;97835.22;;;38.38;36.57
41886;BME280;27567;43.084;25.616;2022-08-18T10:47:05;97814.34;;;39.78;32.47
41886;BME280;27567;43.084;25.616;2022-08-18T10:49:50;97814.75;;;39.80;32.89
41886;BME280;27567;43.084;25.616;2022-08-18T10:55:55;97822.88;;;41.94;27.40
41886;BME280;27567;43.084;25.616;2022-08-18T11:04:58;97813.38;;;39.25;31.39
41886;BME280;27567;43.084;25.616;2022-08-18T11:07:49;97807.53;;;39.79;30.36
41886;BME280;27567;43.084;25.616;2022-08-18T11:10:40;97806.22;;;42.30;28.20
41886;BME280;27567;43.084;25.616;2022-08-18T11:14:18;97801.16;;;39.68;30.00
41886;BME280;27567;43.084;25.616;2022-08-18T11:16:54;97805.00;;;37.19;34.44
41886;BME280;27567;43.084;25.616;2022-08-18T11:19:44;97805.13;;;35.39;37.90
41886;BME280;27567;43.084;25.616;2022-08-18T11:22:31;97804.50;;;36.95;36.37
41886;BME280;27567;43.084;25.616;2022-08-18T11:28:20;97791.53;;;37.46;34.13
41886;BME280;27567;43.084;25.616;2022-08-18T11:31:05;97805.28;;;40.09;30.21
41886;BME280;27567;43.084;25.616;2022-08-18T11:33:50;97784.09;;;41.23;27.42
41886;BME280;27567;43.084;25.616;2022-08-18T11:36:34;97788.50;;;41.24;27.42
41886;BME280;27567;43.084;25.616;2022-08-18T11:39:18;97786.75;;;40.19;28.25
41886;BME280;27567;43.084;25.616;2022-08-18T11:42:02;97775.97;;;41.59;27.17
41886;BME280;27567;43.084;25.616;2022-08-18T11:44:54;97776.50;;;40.47;28.14
41886;BME280;27567;43.084;25.616;2022-08-18T11:48:08;97774.53;;;41.75;26.87
41886;BME280;27567;43.084;25.616;2022-08-18T11:53:41;97768.28;;;41.32;26.86
41886;BME280;27567;43.084;25.616;2022-08-18T11:56:34;97781.47;;;39.79;28.65
41886;BME280;27567;43.084;25.616;2022-08-18T12:02:09;97772.16;;;41.42;26.42
41886;BME280;27567;43.084;25.616;2022-08-18T12:05:00;97772.22;;;40.73;27.70
41886;BME280;27567;43.084;25.616;2022-08-18T12:07:45;97746.94;;;39.89;28.94
41886;BME280;27567;43.084;25.616;2022-08-18T12:10:29;97756.00;;;40.50;27.82
41886;BME280;27567;43.084;25.616;2022-08-18T12:13:22;97747.72;;;41.39;26.22
41886;BME280;27567;43.084;25.616;2022-08-18T12:16:30;97753.97;;;41.51;26.02
41886;BME280;27567;43.084;25.616;2022-08-18T12:19:13;97753.09;;;40.61;27.49
41886;BME280;27567;43.084;25.616;2022-08-18T12:21:58;97745.78;;;41.32;26.22
41886;BME280;27567;43.084;25.616;2022-08-18T12:24:44;97751.72;;;43.21;24.13
41886;BME280;27567;43.084;25.616;2022-08-18T12:27:29;97742.16;;;40.32;27.35
41886;BME280;27567;43.084;25.616;2022-08-18T12:30:16;97742.25;;;39.72;28.08
41886;BME280;27567;43.084;25.616;2022-08-18T12:33:01;97735.81;;;41.28;26.51
41886;BME280;27567;43.084;25.616;2022-08-18T12:35:46;97731.47;;;41.23;26.37
41886;BME280;27567;43.084;25.616;2022-08-18T12:38:32;97735.84;;;42.06;25.72
41886;BME280;27567;43.084;25.616;2022-08-18T12:41:16;97732.66;;;43.29;24.22
41886;BME280;27567;43.084;25.616;2022-08-18T12:44:00;97728.91;;;45.59;21.61
41886;BME280;27567;43.084;25.616;2022-08-18T12:46:44;97727.31;;;46.54;19.98
41886;BME280;27567;43.084;25.616;2022-08-18T12:49:28;97723.72;;;43.67;22.10
41886;BME280;27567;43.084;25.616;2022-08-18T12:52:12;97735.97;;;41.99;24.12
41886;BME280;27567;43.084;25.616;2022-08-18T12:54:56;97735.41;;;39.09;27.83
41886;BME280;27567;43.084;25.616;2022-08-18T12:57:41;97728.47;;;39.35;28.18
41886;BME280;27567;43.084;25.616;2022-08-18T13:00:26;97722.81;;;40.41;26.93
41886;BME280;27567;43.084;25.616;2022-08-18T13:03:10;97716.47;;;39.88;27.28
41886;BME280;27567;43.084;25.616;2022-08-18T13:05:54;97709.91;;;41.16;25.76
41886;BME280;27567;43.084;25.616;2022-08-18T13:08:38;97716.69;;;41.98;24.47
41886;BME280;27567;43.084;25.616;2022-08-18T13:11:23;97714.06;;;41.05;25.54
41886;BME280;27567;43.084;25.616;2022-08-18T13:14:07;97719.97;;;41.92;25.21
41886;BME280;27567;43.084;25.616;2022-08-18T13:16:51;97711.06;;;41.98;24.46
41886;BME280;27567;43.084;25.616;2022-08-18T13:19:36;97718.91;;;44.60;21.97
41886;BME280;27567;43.084;25.616;2022-08-18T13:22:20;97702.41;;;45.40;20.71
41886;BME280;27567;43.084;25.616;2022-08-18T13:25:05;97697.31;;;44.53;21.16
41886;BME280;27567;43.084;25.616;2022-08-18T13:27:49;97716.94;;;42.51;22.74
41886;BME280;27567;43.084;25.616;2022-08-18T13:30:35;97714.88;;;38.19;28.18
41886;BME280;27567;43.084;25.616;2022-08-18T13:33:19;97714.53;;;36.60;31.21
41886;BME280;27567;43.084;25.616;2022-08-18T13:36:03;97705.63;;;36.36;32.37
41886;BME280;27567;43.084;25.616;2022-08-18T13:38:48;97704.00;;;36.32;33.27
41886;BME280;27567;43.084;25.616;2022-08-18T13:41:32;97707.63;;;35.39;33.85
41886;BME280;27567;43.084;25.616;2022-08-18T13:44:18;97697.31;;;37.54;30.99
41886;BME280;27567;43.084;25.616;2022-08-18T13:47:02;97694.00;;;38.57;28.58
41886;BME280;27567;43.084;25.616;2022-08-18T13:49:46;97692.50;;;38.12;29.13
41886;BME280;27567;43.084;25.616;2022-08-18T13:52:31;97698.34;;;38.72;27.56
41886;BME280;27567;43.084;25.616;2022-08-18T13:55:16;97701.22;;;37.24;29.46
41886;BME280;27567;43.084;25.616;2022-08-18T13:58:01;97703.38;;;36.57;30.22
41886;BME280;27567;43.084;25.616;2022-08-18T14:00:45;97696.09;;;37.77;28.46
41886;BME280;27567;43.084;25.616;2022-08-18T14:03:30;97696.06;;;37.37;28.32
41886;BME280;27567;43.084;25.616;2022-08-18T14:06:15;97690.91;;;37.57;28.61
41886;BME280;27567;43.084;25.616;2022-08-18T14:08:59;97686.34;;;38.64;26.71
41886;BME280;27567;43.084;25.616;2022-08-18T14:11:43;97685.97;;;36.92;28.27
41886;BME280;27567;43.084;25.616;2022-08-18T14:14:27;97689.78;;;35.92;29.70
41886;BME280;27567;43.084;25.616;2022-08-18T14:17:11;97686.50;;;38.10;27.34
41886;BME280;27567;43.084;25.616;2022-08-18T14:19:55;97679.81;;;40.09;24.85
41886;BME280;27567;43.084;25.616;2022-08-18T14:22:59;97677.44;;;41.39;23.43
41886;BME280;27567;43.084;25.616;2022-08-18T14:26:02;97679.38;;;41.42;23.46
41886;BME280;27567;43.084;25.616;2022-08-18T14:29:05;97683.97;;;41.01;23.51
41886;BME280;27567;43.084;25.616;2022-08-18T14:31:49;97671.19;;;41.52;22.44
41886;BME280;27567;43.084;25.616;2022-08-18T14:34:33;97670.94;;;41.70;22.29
41886;BME280;27567;43.084;25.616;2022-08-18T14:37:19;97665.84;;;42.29;21.49
41886;BME280;27567;43.084;25.616;2022-08-18T14:40:04;97670.78;;;42.65;21.49
41886;BME280;27567;43.084;25.616;2022-08-18T14:42:49;97673.63;;;42.21;21.14
41886;BME280;27567;43.084;25.616;2022-08-18T14:45:33;97655.16;;;40.94;22.48
41886;BME280;27567;43.084;25.616;2022-08-18T14:48:19;97655.03;;;41.05;22.53
41886;BME280;27567;43.084;25.616;2022-08-18T14:51:05;97660.28;;;41.02;22.42
41886;BME280;27567;43.084;25.616;2022-08-18T14:53:51;97651.69;;;40.51;22.99
41886;BME280;27567;43.084;25.616;2022-08-18T14:56:36;97654.66;;;41.30;22.48
41886;BME280;27567;43.084;25.616;2022-08-18T14:59:20;97655.81;;;41.60;21.52
41886;BME280;27567;43.084;25.616;2022-08-18T15:02:09;97649.03;;;38.97;23.52
41886;BME280;27567;43.084;25.616;2022-08-18T15:04:53;97642.03;;;36.71;26.32
41886;BME280;27567;43.084;25.616;2022-08-18T15:07:37;97644.31;;;35.80;27.46
41886;BME280;27567;43.084;25.616;2022-08-18T15:10:22;97647.59;;;35.45;28.89
41886;BME280;27567;43.084;25.616;2022-08-18T15:13:06;97647.16;;;35.39;28.64
41886;BME280;27567;43.084;25.616;2022-08-18T15:15:51;97634.41;;;34.97;29.73
41886;BME280;27567;43.084;25.616;2022-08-18T15:18:35;97644.66;;;34.92;30.89
41886;BME280;27567;43.084;25.616;2022-08-18T15:21:19;97631.88;;;34.84;29.97
41886;BME280;27567;43.084;25.616;2022-08-18T15:24:22;97636.31;;;34.92;30.08
41886;BME280;27567;43.084;25.616;2022-08-18T15:27:36;97635.69;;;35.06;30.33
41886;BME280;27567;43.084;25.616;2022-08-18T15:30:23;97631.50;;;36.39;28.27
41886;BME280;27567;43.084;25.616;2022-08-18T15:33:08;97637.44;;;38.94;25.50
41886;BME280;27567;43.084;25.616;2022-08-18T15:35:53;97629.22;;;39.78;23.92
41886;BME280;27567;43.084;25.616;2022-08-18T15:38:38;97633.34;;;39.63;24.03
41886;BME280;27567;43.084;25.616;2022-08-18T15:41:44;97633.91;;;39.47;24.00
41886;BME280;27567;43.084;25.616;2022-08-18T15:44:29;97628.06;;;40.10;22.71
41886;BME280;27567;43.084;25.616;2022-08-18T15:47:13;97622.63;;;39.96;23.91
41886;BME280;27567;43.084;25.616;2022-08-18T15:49:57;97634.31;;;39.91;22.83
41886;BME280;27567;43.084;25.616;2022-08-18T15:55:39;97636.84;;;38.51;23.48
41886;BME280;27567;43.084;25.616;2022-08-18T15:58:23;97628.91;;;39.13;23.41
41886;BME280;27567;43.084;25.616;2022-08-18T16:01:08;97624.72;;;39.43;23.04
41886;BME280;27567;43.084;25.616;2022-08-18T16:03:54;97625.88;;;39.45;22.74
41886;BME280;27567;43.084;25.616;2022-08-18T16:06:38;97631.81;;;38.98;23.03
41886;BME280;27567;43.084;25.616;2022-08-18T16:09:27;97620.44;;;38.49;23.49
41886;BME280;27567;43.084;25.616;2022-08-18T16:12:11;97632.09;;;38.22;23.63
41886;BME280;27567;43.084;25.616;2022-08-18T16:14:55;97630.59;;;38.03;24.13
41886;BME280;27567;43.084;25.616;2022-08-18T16:17:39;97638.97;;;37.92;23.95
41886;BME280;27567;43.084;25.616;2022-08-18T16:20:24;97636.03;;;36.69;25.05
41886;BME280;27567;43.084;25.616;2022-08-18T16:23:09;97635.63;;;36.67;24.64
41886;BME280;27567;43.084;25.616;2022-08-18T16:25:59;97637.81;;;36.21;25.59
41886;BME280;27567;43.084;25.616;2022-08-18T16:28:44;97625.28;;;35.93;26.06
41886;BME280;27567;43.084;25.616;2022-08-18T16:31:29;97631.00;;;36.15;26.00
41886;BME280;27567;43.084;25.616;2022-08-18T16:34:13;97629.19;;;35.85;25.96
41886;BME280;27567;43.084;25.616;2022-08-18T16:36:57;97632.94;;;36.07;26.46
41886;BME280;27567;43.084;25.616;2022-08-18T16:39:41;97643.00;;;35.67;26.84
41886;BME280;27567;43.084;25.616;2022-08-18T16:42:25;97644.47;;;35.09;27.49
41886;BME280;27567;43.084;25.616;2022-08-18T16:45:10;97655.22;;;34.76;27.97
41886;BME280;27567;43.084;25.616;2022-08-18T16:47:54;97647.53;;;34.35;29.09
41886;BME280;27567;43.084;25.616;2022-08-18T16:50:38;97646.78;;;34.08;30.05
41886;BME280;27567;43.084;25.616;2022-08-18T16:53:25;97648.66;;;34.00;30.71
41886;BME280;27567;43.084;25.616;2022-08-18T16:56:16;97650.50;;;33.65;31.36
41886;BME280;27567;43.084;25.616;2022-08-18T16:59:00;97658.31;;;33.13;32.43